createdAt,value
2023-11-24T00:02:33.195Z,0.00
2023-11-24T00:07:36.496Z,1.00
2023-11-24T00:12:39.376Z,0.00
2023-11-24T00:17:43.689Z,0.25
2023-11-24T00:22:46.548Z,1.00
2023-11-24T00:27:50.655Z,0.00
2023-11-24T00:32:55.607Z,0.00
2023-11-24T00:37:58.612Z,0.00
2023-11-24T00:43:02.107Z,0.75
2023-11-24T00:48:07.240Z,0.00
2023-11-24T00:53:10.198Z,1.00
2023-11-24T00:58:13.020Z,0.00
2023-11-24T01:03:17.345Z,0.25
2023-11-24T01:08:20.238Z,0.00
2023-11-24T01:13:23.056Z,0.00
2023-11-24T01:18:28.874Z,0.00
2023-11-24T01:23:31.886Z,0.00
2023-11-24T01:28:35.308Z,0.00
2023-11-24T01:33:40.114Z,0.00
2023-11-24T01:38:42.953Z,0.00
2023-11-24T01:43:58.926Z,0.00
2023-11-24T01:49:05.865Z,0.25
2023-11-24T01:54:09.123Z,0.00
2023-11-24T01:59:12.611Z,0.00
2023-11-24T02:04:16.936Z,0.00
2023-11-24T02:09:20.041Z,0.00
2023-11-24T02:14:22.882Z,0.00
2023-11-24T02:19:28.080Z,0.00
2023-11-24T02:24:32.268Z,0.00
2023-11-24T02:29:35.060Z,0.00
2023-11-24T02:34:37.912Z,0.00
2023-11-24T02:39:42.144Z,0.00
2023-11-24T02:44:45.816Z,0.00
2023-11-24T02:49:48.853Z,0.00
2023-11-24T02:54:54.118Z,0.00
2023-11-24T02:59:57.901Z,0.00
2023-11-24T03:05:00.825Z,0.00
2023-11-24T03:10:06.365Z,0.00
2023-11-24T03:15:12.372Z,0.00
2023-11-24T03:20:16.360Z,0.00
2023-11-24T03:25:20.627Z,0.00
2023-11-24T03:30:25.093Z,0.00
2023-11-24T03:35:28.039Z,0.00
2023-11-24T03:40:32.765Z,0.00
2023-11-24T03:45:36.418Z,0.00
2023-11-24T03:50:39.281Z,0.00
2023-11-24T03:55:43.561Z,0.00
2023-11-24T04:00:47.229Z,0.00
2023-11-24T04:05:50.154Z,0.00
2023-11-24T04:10:56.852Z,0.00
2023-11-24T04:16:01.250Z,0.00
2023-11-24T04:21:04.370Z,0.00
2023-11-24T04:26:08.545Z,0.00
2023-11-24T04:31:11.339Z,0.00
2023-11-24T04:36:15.312Z,0.00
2023-11-24T04:41:19.691Z,0.00
2023-11-24T04:46:23.105Z,0.00
2023-11-24T04:51:26.065Z,0.00
2023-11-24T04:56:30.361Z,0.00
2023-11-24T05:01:33.272Z,0.00
2023-11-24T05:06:36.321Z,0.00
2023-11-24T05:11:40.691Z,0.00
2023-11-24T05:16:43.510Z,0.00
2023-11-24T05:21:46.325Z,0.00
2023-11-24T05:26:50.900Z,0.00
2023-11-24T05:31:53.844Z,0.00
2023-11-24T05:36:56.836Z,0.00
2023-11-24T05:42:01.572Z,0.00
2023-11-24T05:47:05.996Z,0.00
2023-11-24T05:52:15.390Z,0.00
2023-11-24T05:57:19.567Z,0.00
2023-11-24T06:02:22.916Z,0.00
2023-11-24T06:07:25.798Z,0.00
2023-11-24T06:12:30.808Z,0.00
2023-11-24T06:17:33.763Z,0.00
2023-11-24T06:22:36.542Z,0.00
2023-11-24T06:27:40.763Z,0.00
2023-11-24T06:32:43.685Z,0.00
2023-11-24T06:37:46.597Z,0.00
2023-11-24T06:42:50.799Z,0.00
2023-11-24T06:47:53.642Z,0.00
2023-11-24T06:52:56.598Z,0.00
2023-11-24T06:58:00.812Z,0.00
2023-11-24T07:03:03.777Z,0.00
2023-11-24T07:08:06.826Z,0.00
2023-11-24T07:13:11.070Z,0.00
2023-11-24T07:18:14.433Z,0.00
2023-11-24T07:23:17.529Z,0.00
2023-11-24T07:28:21.727Z,0.00
2023-11-24T07:33:24.626Z,0.00
2023-11-24T07:38:27.902Z,0.00
2023-11-24T07:43:32.938Z,0.00
2023-11-24T07:48:36.074Z,0.00
2023-11-24T07:53:38.949Z,0.00
2023-11-24T07:58:43.129Z,0.00
2023-11-24T08:03:46.077Z,0.00
2023-11-24T08:08:48.927Z,0.00
2023-11-24T08:13:54.839Z,0.00
2023-11-24T08:18:57.693Z,0.00
2023-11-24T08:24:00.715Z,0.00
2023-11-24T08:29:04.951Z,4.50
2023-11-24T08:34:09.716Z,33.00
2023-11-24T08:39:14.313Z,52.00
2023-11-24T08:44:25.281Z,75.00
2023-11-24T08:49:28.140Z,93.60
2023-11-24T08:54:30.932Z,99.60
2023-11-24T08:59:35.166Z,107.33
2023-11-24T09:04:38.111Z,115.33
2023-11-24T09:09:42.486Z,125.50
2023-11-24T09:14:46.706Z,126.00
2023-11-24T09:19:50.729Z,136.50
2023-11-24T09:24:53.654Z,139.00
2023-11-24T09:29:57.830Z,138.25
2023-11-24T09:35:00.812Z,145.75
2023-11-24T09:40:04.868Z,147.75
2023-11-24T09:45:16.213Z,142.75
2023-11-24T09:50:25.826Z,140.50
2023-11-24T09:55:30.671Z,131.75
2023-11-24T10:00:35.008Z,124.67
2023-11-24T10:05:37.973Z,118.25
2023-11-24T10:10:40.794Z,117.00
2023-11-24T10:15:45.001Z,108.67
2023-11-24T10:20:47.820Z,107.00
2023-11-24T10:25:50.565Z,107.00
2023-11-24T10:30:55.683Z,100.00
2023-11-24T10:36:00.134Z,100.33
2023-11-24T10:41:05.474Z,101.67
2023-11-24T10:46:16.218Z,99.25
2023-11-24T10:51:28.813Z,92.20
2023-11-24T10:56:34.958Z,96.20
2023-11-24T11:01:39.356Z,88.40
2023-11-24T11:06:49.970Z,88.80
2023-11-24T11:12:14.753Z,85.20
2023-11-24T11:17:21.523Z,79.80
2023-11-24T11:22:29.958Z,82.00
2023-11-24T11:27:36.479Z,79.40
2023-11-24T11:32:40.737Z,78.40
2023-11-24T11:37:43.780Z,78.00
2023-11-24T11:42:59.599Z,76.00
2023-11-24T11:48:05.811Z,71.20
2023-11-24T11:53:10.011Z,71.40
2023-11-24T11:58:14.472Z,72.00
2023-11-24T12:03:19.639Z,68.40
2023-11-24T12:08:24.482Z,67.40
2023-11-24T12:13:27.770Z,63.60
2023-11-24T12:18:32.158Z,66.00
2023-11-24T12:23:37.800Z,65.20
2023-11-24T12:28:41.945Z,65.40
2023-11-24T12:33:53.037Z,63.00
2023-11-24T12:38:55.966Z,61.20
2023-11-24T12:44:00.478Z,64.80
2023-11-24T12:49:05.815Z,59.00
2023-11-24T12:54:09.694Z,60.80
2023-11-24T12:59:12.663Z,58.40
2023-11-24T13:04:17.282Z,58.20
2023-11-24T13:09:23.653Z,56.40
2023-11-24T13:14:26.533Z,56.80
2023-11-24T13:19:32.303Z,54.00
2023-11-24T13:24:36.839Z,54.80
2023-11-24T13:29:43.513Z,54.60
2023-11-24T13:34:47.990Z,54.60
2023-11-24T13:39:51.240Z,51.80
2023-11-24T13:44:54.681Z,52.80
2023-11-24T13:49:59.761Z,52.00
2023-11-24T13:55:07.975Z,49.00
2023-11-24T14:00:12.719Z,45.80
2023-11-24T14:05:17.165Z,51.80
2023-11-24T14:10:20.793Z,48.40
2023-11-24T14:15:24.504Z,49.80
2023-11-24T14:20:28.848Z,45.40
2023-11-24T14:25:31.925Z,46.40
2023-11-24T14:30:39.421Z,44.80
2023-11-24T14:35:43.957Z,44.80
2023-11-24T14:40:47.230Z,42.80
2023-11-24T14:45:50.070Z,44.20
2023-11-24T14:50:55.095Z,44.80
2023-11-24T14:55:57.918Z,38.00
2023-11-24T15:01:03.669Z,39.20
2023-11-24T15:06:15.422Z,37.00
2023-11-24T15:11:22.157Z,38.00
2023-11-24T15:16:29.990Z,36.00
2023-11-24T15:21:36.258Z,34.80
2023-11-24T15:26:40.752Z,34.40
2023-11-24T15:31:46.217Z,34.80
2023-11-24T15:36:51.088Z,33.60
2023-11-24T15:41:53.912Z,32.00
2023-11-24T15:46:56.755Z,31.00
2023-11-24T15:52:02.989Z,31.00
2023-11-24T15:57:06.236Z,32.00
2023-11-24T16:02:09.510Z,30.60
2023-11-24T16:07:18.618Z,31.80
2023-11-24T16:12:23.647Z,29.60
2023-11-24T16:17:26.536Z,28.20
2023-11-24T16:22:30.821Z,28.20
2023-11-24T16:27:33.671Z,28.00
2023-11-24T16:32:36.538Z,29.00
2023-11-24T16:37:41.941Z,27.60
2023-11-24T16:42:45.221Z,28.00
2023-11-24T16:47:48.081Z,27.20
2023-11-24T16:52:52.438Z,26.20
2023-11-24T16:57:55.424Z,24.40
2023-11-24T17:02:58.995Z,25.60
2023-11-24T17:08:05.216Z,23.80
2023-11-24T17:13:09.116Z,24.00
2023-11-24T17:18:12.103Z,22.40
2023-11-24T17:23:17.704Z,22.00
2023-11-24T17:28:21.711Z,20.20
2023-11-24T17:33:24.707Z,20.80
2023-11-24T17:38:28.892Z,19.00
2023-11-24T17:43:31.749Z,18.60
2023-11-24T17:48:35.508Z,16.80
2023-11-24T17:53:42.326Z,16.60
2023-11-24T17:58:45.143Z,16.60
2023-11-24T18:03:49.303Z,15.20
2023-11-24T18:08:53.755Z,14.80
2023-11-24T18:13:56.948Z,14.00
2023-11-24T18:19:03.166Z,12.25
2023-11-24T18:24:08.637Z,12.25
2023-11-24T18:29:15.001Z,12.75
2023-11-24T18:34:17.958Z,14.50
2023-11-24T18:39:22.157Z,10.75
2023-11-24T18:44:25.058Z,9.75
2023-11-24T18:49:28.189Z,12.25
2023-11-24T18:54:32.969Z,10.75
2023-11-24T18:59:37.792Z,10.25
2023-11-24T19:04:40.640Z,9.25
2023-11-24T19:09:47.337Z,9.00
2023-11-24T19:14:50.157Z,9.25
2023-11-24T19:19:53.008Z,7.25
2023-11-24T19:24:57.324Z,8.00
2023-11-24T19:30:00.208Z,8.00
2023-11-24T19:35:04.946Z,8.25
2023-11-24T19:40:11.200Z,7.00
2023-11-24T19:45:14.397Z,6.75
2023-11-24T19:50:17.572Z,6.75
2023-11-24T19:55:21.780Z,6.50
2023-11-24T20:00:25.238Z,5.50
2023-11-24T20:05:30.641Z,6.25
2023-11-24T20:10:34.985Z,6.75
2023-11-24T20:15:39.185Z,6.75
2023-11-24T20:20:44.436Z,5.00
2023-11-24T20:25:49.489Z,5.75
2023-11-24T20:30:52.332Z,5.50
2023-11-24T20:35:55.647Z,5.25
2023-11-24T20:41:00.228Z,5.00
2023-11-24T20:46:04.572Z,4.25
2023-11-24T20:51:10.882Z,4.00
2023-11-24T20:56:15.461Z,3.50
2023-11-24T21:01:18.517Z,4.25
2023-11-24T21:06:21.620Z,4.25
2023-11-24T21:11:27.839Z,3.00
2023-11-24T21:16:30.691Z,3.50
2023-11-24T21:21:34.353Z,3.00
2023-11-24T21:26:38.589Z,3.00
2023-11-24T21:31:41.745Z,3.50
2023-11-24T21:36:44.775Z,2.50
2023-11-24T21:41:49.590Z,3.00
2023-11-24T21:46:52.457Z,3.00
2023-11-24T21:51:56.881Z,2.75
2023-11-24T21:57:01.688Z,1.75
2023-11-24T22:02:05.523Z,2.00
2023-11-24T22:07:09.665Z,3.25
2023-11-24T22:12:13.952Z,2.00
2023-11-24T22:17:17.283Z,2.00
2023-11-24T22:22:20.540Z,2.25
2023-11-24T22:27:24.751Z,1.50
2023-11-24T22:32:28.299Z,1.50
2023-11-24T22:37:33.048Z,3.00
2023-11-24T22:42:37.663Z,2.50
2023-11-24T22:47:44.316Z,2.00
2023-11-24T22:52:47.838Z,1.25
2023-11-24T22:57:52.333Z,2.75
2023-11-24T23:02:55.598Z,2.25
2023-11-24T23:07:58.765Z,2.25
2023-11-24T23:13:04.511Z,2.00
2023-11-24T23:18:07.736Z,2.00
2023-11-24T23:23:10.893Z,1.75
2023-11-24T23:28:15.411Z,2.00
2023-11-24T23:33:18.784Z,2.50
2023-11-24T23:38:23.048Z,2.00
2023-11-24T23:43:27.491Z,2.00
2023-11-24T23:48:30.508Z,1.00
2023-11-24T23:53:33.449Z,1.75
2023-11-24T23:58:38.502Z,1.75
